sensor_id;sensor_type;location;lat;lon;timestamp;P1;durP1;ratioP1;P2;durP2;ratioP2
46110;SDS011;31849;55.992;37.252;2024-03-02T00:03:11;56.00;;;29.63;;
46110;SDS011;31849;55.992;37.252;2024-03-02T00:08:17;57.53;;;30.23;;
46110;SDS011;31849;55.992;37.252;2024-03-02T00:13:29;46.00;;;27.63;;
46110;SDS011;31849;55.992;37.252;2024-03-02T00:18:34;51.22;;;28.45;;
46110;SDS011;31849;55.992;37.252;2024-03-02T00:23:39;54.80;;;29.08;;
46110;SDS011;31849;55.992;37.252;2024-03-02T00:28:45;49.23;;;28.60;;
46110;SDS011;31849;55.992;37.252;2024-03-02T00:33:49;51.53;;;29.13;;
46110;SDS011;31849;55.992;37.252;2024-03-02T00:38:53;50.53;;;28.90;;
46110;SDS011;31849;55.992;37.252;2024-03-02T00:44:00;54.13;;;28.73;;
46110;SDS011;31849;55.992;37.252;2024-03-02T00:49:05;52.20;;;30.08;;
46110;SDS011;31849;55.992;37.252;2024-03-02T00:54:22;49.15;;;28.83;;
46110;SDS011;31849;55.992;37.252;2024-03-02T00:59:30;50.17;;;27.38;;
46110;SDS011;31849;55.992;37.252;2024-03-02T01:04:34;49.90;;;28.63;;
46110;SDS011;31849;55.992;37.252;2024-03-02T01:09:38;46.22;;;28.63;;
46110;SDS011;31849;55.992;37.252;2024-03-02T01:14:45;54.13;;;29.45;;
46110;SDS011;31849;55.992;37.252;2024-03-02T01:19:49;52.65;;;27.95;;
46110;SDS011;31849;55.992;37.252;2024-03-02T01:24:52;47.13;;;26.77;;
46110;SDS011;31849;55.992;37.252;2024-03-02T01:29:58;55.70;;;27.67;;
46110;SDS011;31849;55.992;37.252;2024-03-02T01:35:03;49.08;;;28.63;;
46110;SDS011;31849;55.992;37.252;2024-03-02T01:40:09;54.72;;;27.85;;
46110;SDS011;31849;55.992;37.252;2024-03-02T01:45:15;49.60;;;26.92;;
46110;SDS011;31849;55.992;37.252;2024-03-02T01:50:24;46.13;;;26.80;;
46110;SDS011;31849;55.992;37.252;2024-03-02T01:55:30;47.97;;;27.75;;
46110;SDS011;31849;55.992;37.252;2024-03-02T02:00:36;53.17;;;29.08;;
46110;SDS011;31849;55.992;37.252;2024-03-02T02:05:41;52.90;;;30.60;;
46110;SDS011;31849;55.992;37.252;2024-03-02T02:10:45;55.33;;;31.15;;
46110;SDS011;31849;55.992;37.252;2024-03-02T02:15:51;56.73;;;31.20;;
46110;SDS011;31849;55.992;37.252;2024-03-02T02:20:55;54.63;;;29.58;;
46110;SDS011;31849;55.992;37.252;2024-03-02T02:26:00;53.42;;;29.83;;
46110;SDS011;31849;55.992;37.252;2024-03-02T02:31:05;73.35;;;36.55;;
46110;SDS011;31849;55.992;37.252;2024-03-02T02:36:09;58.50;;;31.27;;
46110;SDS011;31849;55.992;37.252;2024-03-02T02:41:15;65.87;;;35.33;;
46110;SDS011;31849;55.992;37.252;2024-03-02T02:46:19;68.13;;;33.13;;
46110;SDS011;31849;55.992;37.252;2024-03-02T02:51:23;64.18;;;35.10;;
46110;SDS011;31849;55.992;37.252;2024-03-02T02:56:28;64.00;;;34.20;;
46110;SDS011;31849;55.992;37.252;2024-03-02T03:01:33;58.95;;;32.03;;
46110;SDS011;31849;55.992;37.252;2024-03-02T03:06:37;52.80;;;30.60;;
46110;SDS011;31849;55.992;37.252;2024-03-02T03:11:42;50.90;;;29.23;;
46110;SDS011;31849;55.992;37.252;2024-03-02T03:16:46;63.78;;;31.65;;
46110;SDS011;31849;55.992;37.252;2024-03-02T03:21:51;52.47;;;29.93;;
46110;SDS011;31849;55.992;37.252;2024-03-02T03:26:56;54.83;;;30.83;;
46110;SDS011;31849;55.992;37.252;2024-03-02T03:32:00;59.25;;;30.23;;
46110;SDS011;31849;55.992;37.252;2024-03-02T03:37:04;58.85;;;30.13;;
46110;SDS011;31849;55.992;37.252;2024-03-02T03:42:09;53.22;;;29.00;;
46110;SDS011;31849;55.992;37.252;2024-03-02T03:47:13;54.50;;;30.25;;
46110;SDS011;31849;55.992;37.252;2024-03-02T03:52:18;55.93;;;30.03;;
46110;SDS011;31849;55.992;37.252;2024-03-02T03:57:23;53.83;;;29.70;;
46110;SDS011;31849;55.992;37.252;2024-03-02T04:02:27;58.70;;;31.70;;
46110;SDS011;31849;55.992;37.252;2024-03-02T04:07:31;55.60;;;29.27;;
46110;SDS011;31849;55.992;37.252;2024-03-02T04:12:37;57.53;;;30.35;;
46110;SDS011;31849;55.992;37.252;2024-03-02T04:17:41;55.33;;;29.83;;
46110;SDS011;31849;55.992;37.252;2024-03-02T04:22:45;52.90;;;30.13;;
46110;SDS011;31849;55.992;37.252;2024-03-02T04:27:50;53.10;;;30.05;;
46110;SDS011;31849;55.992;37.252;2024-03-02T04:32:54;53.65;;;29.65;;
46110;SDS011;31849;55.992;37.252;2024-03-02T04:37:58;60.45;;;30.92;;
46110;SDS011;31849;55.992;37.252;2024-03-02T04:43:03;63.87;;;34.13;;
46110;SDS011;31849;55.992;37.252;2024-03-02T04:48:08;60.22;;;33.42;;
46110;SDS011;31849;55.992;37.252;2024-03-02T04:53:12;64.83;;;35.30;;
46110;SDS011;31849;55.992;37.252;2024-03-02T04:58:17;61.20;;;34.13;;
46110;SDS011;31849;55.992;37.252;2024-03-02T05:03:21;65.18;;;34.70;;
46110;SDS011;31849;55.992;37.252;2024-03-02T05:08:26;68.40;;;35.03;;
46110;SDS011;31849;55.992;37.252;2024-03-02T05:13:31;71.20;;;38.40;;
46110;SDS011;31849;55.992;37.252;2024-03-02T05:18:36;72.97;;;38.55;;
46110;SDS011;31849;55.992;37.252;2024-03-02T05:23:41;78.10;;;42.25;;
46110;SDS011;31849;55.992;37.252;2024-03-02T05:28:46;78.90;;;42.00;;
46110;SDS011;31849;55.992;37.252;2024-03-02T05:33:50;78.65;;;40.83;;
46110;SDS011;31849;55.992;37.252;2024-03-02T05:38:58;76.88;;;38.53;;
46110;SDS011;31849;55.992;37.252;2024-03-02T05:44:04;67.90;;;36.90;;
46110;SDS011;31849;55.992;37.252;2024-03-02T05:49:09;68.72;;;38.05;;
46110;SDS011;31849;55.992;37.252;2024-03-02T05:54:13;70.50;;;37.53;;
46110;SDS011;31849;55.992;37.252;2024-03-02T05:59:18;69.33;;;38.20;;
46110;SDS011;31849;55.992;37.252;2024-03-02T06:04:22;67.97;;;36.50;;
46110;SDS011;31849;55.992;37.252;2024-03-02T06:09:26;69.63;;;37.30;;
46110;SDS011;31849;55.992;37.252;2024-03-02T06:14:31;62.75;;;35.95;;
46110;SDS011;31849;55.992;37.252;2024-03-02T06:19:35;62.25;;;36.38;;
46110;SDS011;31849;55.992;37.252;2024-03-02T06:24:39;65.07;;;35.73;;
46110;SDS011;31849;55.992;37.252;2024-03-02T06:29:45;59.30;;;35.20;;
46110;SDS011;31849;55.992;37.252;2024-03-02T06:34:48;59.55;;;33.35;;
46110;SDS011;31849;55.992;37.252;2024-03-02T06:39:52;61.10;;;33.37;;
46110;SDS011;31849;55.992;37.252;2024-03-02T06:44:58;53.27;;;31.20;;
46110;SDS011;31849;55.992;37.252;2024-03-02T06:50:03;58.00;;;32.58;;
46110;SDS011;31849;55.992;37.252;2024-03-02T06:55:09;56.38;;;32.17;;
46110;SDS011;31849;55.992;37.252;2024-03-02T07:00:15;57.10;;;31.98;;
46110;SDS011;31849;55.992;37.252;2024-03-02T07:05:20;54.28;;;32.17;;
46110;SDS011;31849;55.992;37.252;2024-03-02T07:10:24;54.97;;;32.80;;
46110;SDS011;31849;55.992;37.252;2024-03-02T07:15:29;55.13;;;33.00;;
46110;SDS011;31849;55.992;37.252;2024-03-02T07:20:49;55.40;;;31.92;;
46110;SDS011;31849;55.992;37.252;2024-03-02T07:25:53;53.78;;;32.50;;
46110;SDS011;31849;55.992;37.252;2024-03-02T07:31:03;55.03;;;31.60;;
46110;SDS011;31849;55.992;37.252;2024-03-02T07:36:08;52.47;;;29.98;;
46110;SDS011;31849;55.992;37.252;2024-03-02T07:41:12;51.22;;;29.98;;
46110;SDS011;31849;55.992;37.252;2024-03-02T07:46:20;56.35;;;29.25;;
46110;SDS011;31849;55.992;37.252;2024-03-02T07:51:24;56.30;;;32.72;;
46110;SDS011;31849;55.992;37.252;2024-03-02T07:56:28;54.70;;;31.40;;
46110;SDS011;31849;55.992;37.252;2024-03-02T08:01:33;58.13;;;34.45;;
46110;SDS011;31849;55.992;37.252;2024-03-02T08:06:37;62.90;;;34.45;;
46110;SDS011;31849;55.992;37.252;2024-03-02T08:11:41;56.03;;;34.87;;
46110;SDS011;31849;55.992;37.252;2024-03-02T08:16:47;66.80;;;36.40;;
46110;SDS011;31849;55.992;37.252;2024-03-02T08:21:51;68.03;;;36.28;;
46110;SDS011;31849;55.992;37.252;2024-03-02T08:26:55;68.23;;;38.47;;
46110;SDS011;31849;55.992;37.252;2024-03-02T08:32:03;64.75;;;37.58;;
46110;SDS011;31849;55.992;37.252;2024-03-02T08:37:07;66.82;;;39.75;;
46110;SDS011;31849;55.992;37.252;2024-03-02T08:42:11;67.60;;;37.37;;
46110;SDS011;31849;55.992;37.252;2024-03-02T08:47:16;56.97;;;34.40;;
46110;SDS011;31849;55.992;37.252;2024-03-02T08:52:21;58.78;;;33.92;;
46110;SDS011;31849;55.992;37.252;2024-03-02T08:57:25;56.17;;;33.08;;
46110;SDS011;31849;55.992;37.252;2024-03-02T09:02:30;55.40;;;30.90;;
46110;SDS011;31849;55.992;37.252;2024-03-02T09:07:35;58.63;;;32.35;;
46110;SDS011;31849;55.992;37.252;2024-03-02T09:12:40;60.63;;;31.58;;
46110;SDS011;31849;55.992;37.252;2024-03-02T09:17:46;59.07;;;32.97;;
46110;SDS011;31849;55.992;37.252;2024-03-02T09:22:50;58.05;;;33.60;;
46110;SDS011;31849;55.992;37.252;2024-03-02T09:27:54;54.22;;;29.92;;
46110;SDS011;31849;55.992;37.252;2024-03-02T09:33:00;49.60;;;30.35;;
46110;SDS011;31849;55.992;37.252;2024-03-02T09:38:07;51.75;;;29.98;;
46110;SDS011;31849;55.992;37.252;2024-03-02T09:43:11;54.43;;;30.40;;
46110;SDS011;31849;55.992;37.252;2024-03-02T09:48:17;56.92;;;31.88;;
46110;SDS011;31849;55.992;37.252;2024-03-02T09:53:22;54.22;;;30.35;;
46110;SDS011;31849;55.992;37.252;2024-03-02T09:58:27;50.83;;;27.92;;
46110;SDS011;31849;55.992;37.252;2024-03-02T10:03:32;53.97;;;30.33;;
46110;SDS011;31849;55.992;37.252;2024-03-02T10:08:42;50.65;;;29.55;;
46110;SDS011;31849;55.992;37.252;2024-03-02T10:13:46;54.33;;;28.98;;
46110;SDS011;31849;55.992;37.252;2024-03-02T10:18:52;47.67;;;28.87;;
46110;SDS011;31849;55.992;37.252;2024-03-02T10:23:57;51.90;;;28.70;;
46110;SDS011;31849;55.992;37.252;2024-03-02T10:29:10;59.83;;;31.60;;
46110;SDS011;31849;55.992;37.252;2024-03-02T10:34:16;57.00;;;31.10;;
46110;SDS011;31849;55.992;37.252;2024-03-02T10:39:20;56.30;;;31.58;;
46110;SDS011;31849;55.992;37.252;2024-03-02T10:44:24;55.50;;;31.43;;
46110;SDS011;31849;55.992;37.252;2024-03-02T10:49:31;56.08;;;31.58;;
46110;SDS011;31849;55.992;37.252;2024-03-02T10:54:36;56.33;;;30.30;;
46110;SDS011;31849;55.992;37.252;2024-03-02T10:59:44;52.50;;;30.48;;
46110;SDS011;31849;55.992;37.252;2024-03-02T11:04:56;51.38;;;30.23;;
46110;SDS011;31849;55.992;37.252;2024-03-02T11:10:04;52.30;;;30.63;;
46110;SDS011;31849;55.992;37.252;2024-03-02T11:15:11;52.65;;;29.38;;
46110;SDS011;31849;55.992;37.252;2024-03-02T11:20:24;54.05;;;28.83;;
46110;SDS011;31849;55.992;37.252;2024-03-02T11:25:28;49.25;;;27.77;;
46110;SDS011;31849;55.992;37.252;2024-03-02T11:30:50;45.60;;;27.67;;
46110;SDS011;31849;55.992;37.252;2024-03-02T11:35:57;50.33;;;28.35;;
46110;SDS011;31849;55.992;37.252;2024-03-02T11:41:02;46.55;;;27.23;;
46110;SDS011;31849;55.992;37.252;2024-03-02T11:46:11;52.65;;;27.85;;
46110;SDS011;31849;55.992;37.252;2024-03-02T11:51:16;47.78;;;28.70;;
46110;SDS011;31849;55.992;37.252;2024-03-02T11:56:20;51.28;;;27.98;;
46110;SDS011;31849;55.992;37.252;2024-03-02T12:01:25;43.33;;;26.50;;
46110;SDS011;31849;55.992;37.252;2024-03-02T12:06:31;48.00;;;27.70;;
46110;SDS011;31849;55.992;37.252;2024-03-02T12:11:35;48.28;;;26.70;;
46110;SDS011;31849;55.992;37.252;2024-03-02T12:16:39;48.17;;;27.63;;
46110;SDS011;31849;55.992;37.252;2024-03-02T12:21:49;43.50;;;25.60;;
46110;SDS011;31849;55.992;37.252;2024-03-02T12:26:53;39.15;;;25.13;;
46110;SDS011;31849;55.992;37.252;2024-03-02T12:31:57;47.08;;;25.92;;
46110;SDS011;31849;55.992;37.252;2024-03-02T12:37:03;39.63;;;25.73;;
46110;SDS011;31849;55.992;37.252;2024-03-02T12:42:07;42.47;;;25.25;;
46110;SDS011;31849;55.992;37.252;2024-03-02T12:47:11;39.67;;;24.77;;
46110;SDS011;31849;55.992;37.252;2024-03-02T12:52:17;37.87;;;24.57;;
46110;SDS011;31849;55.992;37.252;2024-03-02T12:57:24;38.40;;;22.85;;
46110;SDS011;31849;55.992;37.252;2024-03-02T13:02:30;44.90;;;24.67;;
46110;SDS011;31849;55.992;37.252;2024-03-02T13:07:35;38.08;;;23.55;;
46110;SDS011;31849;55.992;37.252;2024-03-02T13:12:40;38.30;;;23.58;;
46110;SDS011;31849;55.992;37.252;2024-03-02T13:17:44;40.25;;;23.67;;
46110;SDS011;31849;55.992;37.252;2024-03-02T13:22:50;35.88;;;23.55;;
46110;SDS011;31849;55.992;37.252;2024-03-02T13:27:54;38.08;;;22.58;;
46110;SDS011;31849;55.992;37.252;2024-03-02T13:32:59;37.90;;;24.05;;
46110;SDS011;31849;55.992;37.252;2024-03-02T13:38:04;43.47;;;23.30;;
46110;SDS011;31849;55.992;37.252;2024-03-02T13:43:08;40.75;;;24.05;;
46110;SDS011;31849;55.992;37.252;2024-03-02T13:48:14;39.28;;;23.85;;
46110;SDS011;31849;55.992;37.252;2024-03-02T13:53:19;40.92;;;25.33;;
46110;SDS011;31849;55.992;37.252;2024-03-02T13:58:23;44.55;;;25.60;;
46110;SDS011;31849;55.992;37.252;2024-03-02T14:03:27;49.77;;;25.33;;
46110;SDS011;31849;55.992;37.252;2024-03-02T14:08:33;45.03;;;26.48;;
46110;SDS011;31849;55.992;37.252;2024-03-02T14:13:38;40.25;;;26.08;;
46110;SDS011;31849;55.992;37.252;2024-03-02T14:18:42;41.40;;;25.70;;
46110;SDS011;31849;55.992;37.252;2024-03-02T14:29:10;44.30;;;24.55;;
46110;SDS011;31849;55.992;37.252;2024-03-02T14:34:14;41.92;;;25.20;;
46110;SDS011;31849;55.992;37.252;2024-03-02T14:39:20;40.23;;;24.53;;
46110;SDS011;31849;55.992;37.252;2024-03-02T14:44:25;39.60;;;23.63;;
46110;SDS011;31849;55.992;37.252;2024-03-02T14:49:29;40.17;;;23.63;;
46110;SDS011;31849;55.992;37.252;2024-03-02T14:54:35;37.05;;;24.60;;
46110;SDS011;31849;55.992;37.252;2024-03-02T14:59:40;37.72;;;22.42;;
46110;SDS011;31849;55.992;37.252;2024-03-02T15:04:44;34.83;;;22.07;;
46110;SDS011;31849;55.992;37.252;2024-03-02T15:09:51;38.47;;;22.73;;
46110;SDS011;31849;55.992;37.252;2024-03-02T15:14:56;36.55;;;22.67;;
46110;SDS011;31849;55.992;37.252;2024-03-02T15:20:01;38.20;;;22.42;;
46110;SDS011;31849;55.992;37.252;2024-03-02T15:25:08;36.35;;;22.45;;
46110;SDS011;31849;55.992;37.252;2024-03-02T15:30:12;44.15;;;22.63;;
46110;SDS011;31849;55.992;37.252;2024-03-02T15:35:16;39.08;;;23.70;;
46110;SDS011;31849;55.992;37.252;2024-03-02T15:40:22;40.30;;;23.42;;
46110;SDS011;31849;55.992;37.252;2024-03-02T15:45:26;37.42;;;22.40;;
46110;SDS011;31849;55.992;37.252;2024-03-02T15:50:35;38.28;;;22.50;;
46110;SDS011;31849;55.992;37.252;2024-03-02T15:55:41;40.13;;;22.25;;
46110;SDS011;31849;55.992;37.252;2024-03-02T16:00:45;38.63;;;22.55;;
46110;SDS011;31849;55.992;37.252;2024-03-02T16:05:49;36.07;;;21.63;;
46110;SDS011;31849;55.992;37.252;2024-03-02T16:10:55;39.90;;;22.88;;
46110;SDS011;31849;55.992;37.252;2024-03-02T16:16:03;39.15;;;22.67;;
46110;SDS011;31849;55.992;37.252;2024-03-02T16:21:08;38.63;;;23.05;;
46110;SDS011;31849;55.992;37.252;2024-03-02T16:26:13;37.17;;;23.48;;
46110;SDS011;31849;55.992;37.252;2024-03-02T16:31:17;40.30;;;24.05;;
46110;SDS011;31849;55.992;37.252;2024-03-02T16:36:21;37.05;;;23.38;;
46110;SDS011;31849;55.992;37.252;2024-03-02T16:41:27;34.57;;;22.90;;
46110;SDS011;31849;55.992;37.252;2024-03-02T16:46:35;38.88;;;24.20;;
46110;SDS011;31849;55.992;37.252;2024-03-02T16:51:40;40.90;;;25.60;;
46110;SDS011;31849;55.992;37.252;2024-03-02T16:56:45;39.83;;;24.80;;
46110;SDS011;31849;55.992;37.252;2024-03-02T17:01:49;38.92;;;23.98;;
46110;SDS011;31849;55.992;37.252;2024-03-02T17:06:53;37.70;;;24.47;;
46110;SDS011;31849;55.992;37.252;2024-03-02T17:11:59;41.40;;;24.77;;
46110;SDS011;31849;55.992;37.252;2024-03-02T17:17:03;37.88;;;24.02;;
46110;SDS011;31849;55.992;37.252;2024-03-02T17:22:07;41.45;;;25.92;;
46110;SDS011;31849;55.992;37.252;2024-03-02T17:27:13;42.07;;;26.77;;
46110;SDS011;31849;55.992;37.252;2024-03-02T17:32:17;43.85;;;26.75;;
46110;SDS011;31849;55.992;37.252;2024-03-02T17:37:21;45.38;;;26.48;;
46110;SDS011;31849;55.992;37.252;2024-03-02T17:42:27;41.67;;;26.83;;
46110;SDS011;31849;55.992;37.252;2024-03-02T17:47:31;47.25;;;27.55;;
46110;SDS011;31849;55.992;37.252;2024-03-02T17:52:35;41.90;;;25.65;;
46110;SDS011;31849;55.992;37.252;2024-03-02T17:57:40;44.20;;;26.83;;
46110;SDS011;31849;55.992;37.252;2024-03-02T18:02:44;44.78;;;27.50;;
46110;SDS011;31849;55.992;37.252;2024-03-02T18:07:49;44.70;;;27.17;;
46110;SDS011;31849;55.992;37.252;2024-03-02T18:12:54;45.55;;;28.00;;
46110;SDS011;31849;55.992;37.252;2024-03-02T18:17:58;44.13;;;27.38;;
46110;SDS011;31849;55.992;37.252;2024-03-02T18:23:03;48.53;;;27.17;;
46110;SDS011;31849;55.992;37.252;2024-03-02T18:28:09;44.28;;;27.23;;
46110;SDS011;31849;55.992;37.252;2024-03-02T18:33:13;49.70;;;28.92;;
46110;SDS011;31849;55.992;37.252;2024-03-02T18:38:18;44.63;;;27.42;;
46110;SDS011;31849;55.992;37.252;2024-03-02T18:43:23;44.97;;;28.63;;
46110;SDS011;31849;55.992;37.252;2024-03-02T18:48:27;48.33;;;27.85;;
46110;SDS011;31849;55.992;37.252;2024-03-02T18:53:31;50.38;;;27.95;;
46110;SDS011;31849;55.992;37.252;2024-03-02T18:58:37;45.20;;;27.58;;
46110;SDS011;31849;55.992;37.252;2024-03-02T19:03:41;50.13;;;28.38;;
46110;SDS011;31849;55.992;37.252;2024-03-02T19:08:45;54.50;;;29.43;;
46110;SDS011;31849;55.992;37.252;2024-03-02T19:13:51;47.20;;;27.15;;
46110;SDS011;31849;55.992;37.252;2024-03-02T19:18:55;48.60;;;27.80;;
46110;SDS011;31849;55.992;37.252;2024-03-02T19:24:01;48.65;;;28.00;;
46110;SDS011;31849;55.992;37.252;2024-03-02T19:29:07;42.88;;;26.70;;
46110;SDS011;31849;55.992;37.252;2024-03-02T19:34:11;47.28;;;25.20;;
46110;SDS011;31849;55.992;37.252;2024-03-02T19:39:15;48.63;;;27.10;;
46110;SDS011;31849;55.992;37.252;2024-03-02T19:44:25;49.33;;;26.25;;
46110;SDS011;31849;55.992;37.252;2024-03-02T19:49:36;42.70;;;26.13;;
46110;SDS011;31849;55.992;37.252;2024-03-02T19:54:40;43.05;;;25.10;;
46110;SDS011;31849;55.992;37.252;2024-03-02T19:59:46;42.37;;;24.00;;
46110;SDS011;31849;55.992;37.252;2024-03-02T20:04:50;45.20;;;24.55;;
46110;SDS011;31849;55.992;37.252;2024-03-02T20:09:54;45.92;;;24.88;;
46110;SDS011;31849;55.992;37.252;2024-03-02T20:15:00;40.53;;;22.33;;
46110;SDS011;31849;55.992;37.252;2024-03-02T20:20:05;40.40;;;22.85;;
46110;SDS011;31849;55.992;37.252;2024-03-02T20:25:10;38.97;;;22.40;;
46110;SDS011;31849;55.992;37.252;2024-03-02T20:30:16;36.97;;;20.33;;
46110;SDS011;31849;55.992;37.252;2024-03-02T20:35:20;40.15;;;20.00;;
46110;SDS011;31849;55.992;37.252;2024-03-02T20:40:24;38.27;;;19.17;;
46110;SDS011;31849;55.992;37.252;2024-03-02T20:45:31;35.65;;;20.05;;
46110;SDS011;31849;55.992;37.252;2024-03-02T20:50:36;33.08;;;19.80;;
46110;SDS011;31849;55.992;37.252;2024-03-02T20:55:41;39.75;;;22.30;;
46110;SDS011;31849;55.992;37.252;2024-03-02T21:00:46;37.63;;;23.10;;
46110;SDS011;31849;55.992;37.252;2024-03-02T21:06:09;39.70;;;23.48;;
46110;SDS011;31849;55.992;37.252;2024-03-02T21:11:13;39.45;;;23.83;;
46110;SDS011;31849;55.992;37.252;2024-03-02T21:16:22;44.80;;;26.00;;
46110;SDS011;31849;55.992;37.252;2024-03-02T21:21:26;43.85;;;25.23;;
46110;SDS011;31849;55.992;37.252;2024-03-02T21:26:30;44.38;;;24.48;;
46110;SDS011;31849;55.992;37.252;2024-03-02T21:31:35;42.72;;;26.05;;
46110;SDS011;31849;55.992;37.252;2024-03-02T21:36:39;41.90;;;26.50;;
46110;SDS011;31849;55.992;37.252;2024-03-02T21:41:43;42.77;;;25.50;;
46110;SDS011;31849;55.992;37.252;2024-03-02T21:46:50;42.70;;;26.02;;
46110;SDS011;31849;55.992;37.252;2024-03-02T21:51:54;43.53;;;24.95;;
46110;SDS011;31849;55.992;37.252;2024-03-02T21:56:58;42.27;;;25.00;;
46110;SDS011;31849;55.992;37.252;2024-03-02T22:02:05;40.20;;;24.52;;
46110;SDS011;31849;55.992;37.252;2024-03-02T22:07:10;46.60;;;25.38;;
46110;SDS011;31849;55.992;37.252;2024-03-02T22:12:14;42.10;;;24.13;;
46110;SDS011;31849;55.992;37.252;2024-03-02T22:17:19;43.97;;;24.23;;
46110;SDS011;31849;55.992;37.252;2024-03-02T22:22:24;37.42;;;23.65;;
46110;SDS011;31849;55.992;37.252;2024-03-02T22:27:28;39.83;;;22.80;;
46110;SDS011;31849;55.992;37.252;2024-03-02T22:32:34;38.17;;;22.63;;
46110;SDS011;31849;55.992;37.252;2024-03-02T22:37:38;41.65;;;24.30;;
46110;SDS011;31849;55.992;37.252;2024-03-02T22:42:42;41.87;;;23.40;;
46110;SDS011;31849;55.992;37.252;2024-03-02T22:47:47;41.13;;;22.23;;
46110;SDS011;31849;55.992;37.252;2024-03-02T22:52:52;38.90;;;22.58;;
46110;SDS011;31849;55.992;37.252;2024-03-02T22:57:56;45.57;;;23.57;;
46110;SDS011;31849;55.992;37.252;2024-03-02T23:03:02;38.67;;;22.75;;
46110;SDS011;31849;55.992;37.252;2024-03-02T23:08:06;40.92;;;21.70;;
46110;SDS011;31849;55.992;37.252;2024-03-02T23:13:10;35.03;;;19.92;;
46110;SDS011;31849;55.992;37.252;2024-03-02T23:18:16;38.78;;;19.83;;
46110;SDS011;31849;55.992;37.252;2024-03-02T23:23:20;36.55;;;19.70;;
46110;SDS011;31849;55.992;37.252;2024-03-02T23:28:24;36.40;;;20.93;;
46110;SDS011;31849;55.992;37.252;2024-03-02T23:33:29;32.67;;;19.53;;
46110;SDS011;31849;55.992;37.252;2024-03-02T23:38:33;35.58;;;19.13;;
46110;SDS011;31849;55.992;37.252;2024-03-02T23:43:37;38.80;;;21.10;;
46110;SDS011;31849;55.992;37.252;2024-03-02T23:48:43;37.77;;;20.97;;
46110;SDS011;31849;55.992;37.252;2024-03-02T23:53:47;35.85;;;20.60;;
46110;SDS011;31849;55.992;37.252;2024-03-02T23:58:51;34.47;;;19.67;;
